Time;durP1;ratioP1;P1;durP2;ratioP2;P2;SDS_P1;SDS_P2;PMS_P1;PMS_P2;Temp;Humidity;BMP_temperature;BMP_pressure;BME280_temperature;BME280_humidity;BME280_pressure;Samples;Min_cycle;Max_cycle;Signal;HPM_P1;HPM_P2
2021/05/05 00:00:18;;;;;;;0.68;0.43;;;8.90;99.90;;;;;;3564040;40;20053;-85
2021/05/05 00:02:49;;;;;;;4.47;0.63;;;8.80;99.90;;;;;;3546718;40;20033;-84
2021/05/05 00:05:18;;;;;;;4.13;0.73;;;8.80;99.90;;;;;;3560232;40;20037;-84
2021/05/05 00:07:47;;;;;;;4.22;0.80;;;8.80;99.90;;;;;;3564086;40;20041;-85
2021/05/05 00:10:23;;;;;;;4.35;0.70;;;8.80;99.90;;;;;;3559170;40;20045;-85
2021/05/05 00:12:51;;;;;;;4.28;0.88;;;8.80;99.90;;;;;;3547685;40;20121;-86
2021/05/05 00:16:25;;;;;;;2.03;0.70;;;8.80;99.90;;;;;;3555221;40;20026;-85
2021/05/05 00:23:02;;;;;;;2.05;0.60;;;8.70;99.90;;;;;;3533213;40;20034;-84
2021/05/05 00:25:33;;;;;;;3.20;0.73;;;8.70;99.90;;;;;;3534316;40;20078;-81
2021/05/05 00:28:01;;;;;;;5.68;1.20;;;8.70;99.90;;;;;;3532658;40;20027;-85
2021/05/05 00:33:35;;;;;;;7.13;1.10;;;8.60;99.90;;;;;;3581835;40;20038;-85
2021/05/05 00:36:04;;;;;;;6.63;0.70;;;8.60;99.90;;;;;;3565290;40;20033;-84
2021/05/05 00:38:32;;;;;;;1.90;0.68;;;8.60;99.90;;;;;;3565537;40;20029;-83
2021/05/05 00:41:01;;;;;;;4.93;0.95;;;8.60;99.90;;;;;;3565530;40;20053;-84
2021/05/05 00:43:28;;;;;;;5.05;0.63;;;8.60;99.90;;;;;;3565250;40;20033;-85
2021/05/05 00:46:22;;;;;;;4.35;0.82;;;8.60;99.90;;;;;;3556625;40;20037;-85
2021/05/05 00:48:51;;;;;;;5.05;1.63;;;8.50;99.90;;;;;;3565421;40;20018;-84
2021/05/05 00:51:19;;;;;;;3.53;0.80;;;8.60;99.90;;;;;;3565159;40;20046;-84
2021/05/05 00:53:51;;;;;;;1.73;0.63;;;8.50;99.90;;;;;;3563808;40;20304;-84
2021/05/05 00:56:20;;;;;;;3.72;0.85;;;8.60;99.90;;;;;;3563507;40;20026;-85
2021/05/05 01:01:28;;;;;;;4.30;1.05;;;8.50;99.90;;;;;;3565071;40;20026;-86
2021/05/05 01:22:18;;;;;;;3.17;1.00;;;8.50;99.90;;;;;;3563236;40;20037;-85
2021/05/05 01:28:11;;;;;;;2.35;0.90;;;8.50;99.90;;;;;;3555199;40;20045;-84
2021/05/05 01:30:49;;;;;;;5.47;1.38;;;8.50;99.90;;;;;;3547061;40;20018;-82
2021/05/05 01:33:20;;;;;;;2.50;0.75;;;8.50;99.90;;;;;;3555743;40;20045;-84
2021/05/05 01:35:50;;;;;;;1.58;0.63;;;8.50;99.90;;;;;;3564304;40;20030;-85
2021/05/05 01:42:57;;;;;;;5.18;1.42;;;8.40;99.90;;;;;;3556328;40;20029;-83
2021/05/05 01:46:23;;;;;;;1.10;0.63;;;8.40;99.90;;;;;;3557188;40;20030;-82
2021/05/05 01:49:25;;;;;;;3.00;0.88;;;8.40;99.90;;;;;;3961397;23;20045;-84
2021/05/05 01:52:03;;;;;;;5.63;1.00;;;8.40;99.90;;;;;;3556109;40;20033;-84
2021/05/05 01:54:36;;;;;;;6.40;1.15;;;8.40;99.90;;;;;;3557055;40;20026;-85
2021/05/05 01:57:35;;;;;;;5.95;1.48;;;8.30;99.90;;;;;;3556384;40;20038;-84
2021/05/05 02:00:34;;;;;;;7.53;2.33;;;8.30;99.90;;;;;;3556453;40;20042;-85
2021/05/05 02:03:10;;;;;;;6.22;1.52;;;8.20;99.90;;;;;;3547948;40;20034;-84
2021/05/05 02:06:15;;;;;;;8.32;1.85;;;8.20;99.90;;;;;;3530830;40;20032;-82
2021/05/05 02:09:02;;;;;;;9.50;1.42;;;8.10;99.90;;;;;;3515516;40;20040;-83
2021/05/05 02:11:33;;;;;;;4.18;1.55;;;8.10;99.90;;;;;;3515809;40;20040;-82
2021/05/05 02:14:01;;;;;;;6.10;1.33;;;8.10;99.90;;;;;;3515950;40;20032;-84
2021/05/05 02:16:33;;;;;;;3.38;0.90;;;8.10;99.90;;;;;;3523376;40;20040;-82
2021/05/05 02:19:01;;;;;;;8.13;1.70;;;8.00;99.90;;;;;;3517820;41;20036;-84
2021/05/05 02:21:29;;;;;;;4.38;1.40;;;8.00;99.90;;;;;;3522313;40;20052;-85
2021/05/05 02:23:58;;;;;;;;;;;7.90;99.90;;;;;;3525518;40;20071;-82
2021/05/05 02:26:31;;;;;;;;;;;7.90;99.90;;;;;;3526242;40;19938;-84
2021/05/05 02:29:05;;;;;;;7.03;1.80;;;7.90;99.90;;;;;;3524718;40;19935;-84
2021/05/05 02:41:17;;;;;;;7.07;1.48;;;7.70;99.90;;;;;;5468244;23;20283;-82
2021/05/05 02:44:39;;;;;;;8.82;1.70;;;7.70;99.90;;;;;;3553850;40;20038;-83
2021/05/05 02:47:09;;;;;;;;;;;7.60;99.90;;;;;;3538109;40;20015;-83
2021/05/05 02:49:45;;;;;;;5.70;1.52;;;7.60;99.90;;;;;;3543699;40;19942;-84
2021/05/05 02:52:14;;;;;;;4.00;1.52;;;7.60;99.90;;;;;;3543682;40;20042;-85
2021/05/05 02:54:48;;;;;;;8.27;1.90;;;7.60;99.90;;;;;;3534141;40;20047;-84
2021/05/05 02:57:19;;;;;;;6.80;1.45;;;7.50;99.90;;;;;;3525540;40;20071;-87
2021/05/05 03:14:21;;;;;;;4.63;1.55;;;7.30;99.90;;;;;;3561874;40;20058;-87
2021/05/05 03:16:49;;;;;;;6.28;1.70;;;7.30;99.90;;;;;;3546660;40;20037;-86
2021/05/05 03:19:55;;;;;;;4.65;1.48;;;7.30;99.90;;;;;;3546611;40;20026;-86
2021/05/05 03:22:25;;;;;;;5.50;1.63;;;7.30;99.90;;;;;;3546585;40;20035;-85
2021/05/05 03:24:54;;;;;;;6.78;1.98;;;7.30;99.90;;;;;;3546658;40;20039;-85
2021/05/05 03:28:14;;;;;;;4.50;2.10;;;7.30;99.90;;;;;;3537678;40;20058;-84
2021/05/05 03:37:14;;;;;;;5.13;1.88;;;7.40;99.90;;;;;;3553357;40;20058;-83
2021/05/05 03:39:42;;;;;;;6.80;1.70;;;7.40;99.90;;;;;;3554750;40;20038;-87
2021/05/05 03:42:12;;;;;;;3.33;1.95;;;7.40;99.90;;;;;;3544836;40;20033;-83
2021/05/05 03:44:46;;;;;;;4.82;1.67;;;7.40;99.90;;;;;;3528508;40;20037;-82
2021/05/05 03:47:15;;;;;;;6.60;2.10;;;7.40;99.90;;;;;;3552365;40;20030;-84
2021/05/05 03:52:53;;;;;;;5.68;1.90;;;7.40;99.90;;;;;;5100651;23;20174;-83
2021/05/05 04:05:43;;;;;;;10.60;2.00;;;7.40;99.90;;;;;;3551236;40;20055;-83
2021/05/05 04:08:12;;;;;;;8.07;1.70;;;7.40;99.90;;;;;;3536652;40;20054;-83
2021/05/05 04:10:41;;;;;;;4.38;1.20;;;7.40;99.90;;;;;;3551857;40;20037;-83
2021/05/05 04:13:10;;;;;;;5.15;1.95;;;7.40;99.90;;;;;;3536315;40;20031;-85
2021/05/05 04:15:38;;;;;;;3.72;1.60;;;7.40;99.90;;;;;;3544247;40;20031;-86
2021/05/05 04:18:09;;;;;;;5.28;1.80;;;7.40;99.90;;;;;;3519537;40;20045;-88
2021/05/05 04:21:09;;;;;;;4.50;1.95;;;7.40;99.90;;;;;;3543392;40;20035;-86
2021/05/05 04:23:39;;;;;;;5.03;2.33;;;7.40;99.90;;;;;;3543507;40;20027;-85
2021/05/05 04:26:08;;;;;;;;;;;7.40;99.90;;;;;;3544265;40;20047;-84
2021/05/05 04:28:37;;;;;;;6.90;1.90;;;7.40;99.90;;;;;;3552379;40;19941;-84
2021/05/05 04:31:05;;;;;;;3.97;1.75;;;7.40;99.90;;;;;;3536064;40;20042;-85
2021/05/05 04:33:33;;;;;;;11.57;2.42;;;7.40;99.90;;;;;;3543672;40;20031;-87
2021/05/05 04:36:01;;;;;;;3.75;1.52;;;7.40;99.90;;;;;;3543418;40;20046;-82
2021/05/05 04:38:29;;;;;;;6.93;1.52;;;7.40;99.90;;;;;;3543524;40;20075;-84
2021/05/05 04:43:50;;;;;;;;;;;7.50;99.90;;;;;;3550740;40;20051;-83
2021/05/05 04:46:19;;;;;;;4.85;1.73;;;7.50;99.90;;;;;;3542668;40;19937;-86
2021/05/05 04:48:52;;;;;;;8.65;1.42;;;7.60;99.90;;;;;;3543303;40;20058;-87
2021/05/05 04:51:22;;;;;;;2.80;1.27;;;7.60;99.90;;;;;;3527553;40;20023;-87
2021/05/05 04:53:50;;;;;;;3.78;1.63;;;7.60;99.90;;;;;;3534817;40;20031;-88
2021/05/05 04:56:18;;;;;;;8.98;1.63;;;7.80;99.90;;;;;;3526618;40;20074;-86
2021/05/05 04:59:17;;;;;;;7.45;1.58;;;7.80;99.90;;;;;;3542838;40;20058;-84
2021/05/05 05:01:44;;;;;;;6.70;1.63;;;7.80;99.90;;;;;;3537325;40;20078;-82
2021/05/05 05:04:12;;;;;;;4.15;1.50;;;7.80;99.90;;;;;;3547283;40;20071;-86
2021/05/05 05:06:39;;;;;;;4.43;1.55;;;7.80;99.90;;;;;;3541221;40;20051;-83
2021/05/05 05:09:10;;;;;;;8.77;1.98;;;7.90;99.90;;;;;;3541881;40;20046;-87
2021/05/05 05:12:05;;;;;;;5.53;1.70;;;8.00;99.90;;;;;;3528011;40;20038;-84
2021/05/05 05:14:45;;;;;;;11.00;2.30;;;8.20;99.90;;;;;;3535651;40;20309;-86
2021/05/05 05:17:19;;;;;;;8.55;1.27;;;8.20;99.90;;;;;;3536054;40;20046;-90
2021/05/05 05:32:18;;;;;;;3.80;1.27;;;8.30;99.90;;;;;;6114202;22;1540454;-84
2021/05/05 05:34:47;;;;;;;7.72;1.85;;;8.80;99.90;;;;;;6058336;23;20013;-85
2021/05/05 05:37:15;;;;;;;3.63;1.63;;;8.80;99.90;;;;;;6115402;23;20009;-84
2021/05/05 05:39:45;;;;;;;8.10;1.92;;;8.80;99.90;;;;;;6116194;23;20013;-84
2021/05/05 05:42:17;;;;;;;8.95;1.50;;;9.00;99.90;;;;;;6140621;23;20009;-84
2021/05/05 05:44:47;;;;;;;5.43;1.70;;;9.00;99.90;;;;;;6116810;23;20009;-84
2021/05/05 05:47:16;;;;;;;2.17;0.95;;;9.10;99.90;;;;;;6139105;23;20013;-84
2021/05/05 05:49:44;;;;;;;2.17;0.88;;;9.10;99.90;;;;;;6032961;23;20051;-83
2021/05/05 05:52:12;;;;;;;4.63;1.20;;;9.00;99.90;;;;;;6018877;23;20010;-81
2021/05/05 05:54:40;;;;;;;5.07;1.50;;;9.10;99.90;;;;;;6022457;23;20015;-82
2021/05/05 05:57:08;;;;;;;3.03;1.23;;;9.10;99.90;;;;;;6071480;23;20015;-83
2021/05/05 05:59:36;;;;;;;2.47;1.20;;;9.20;99.90;;;;;;6048402;23;20015;-83
2021/05/05 06:02:03;;;;;;;6.47;1.52;;;9.30;99.90;;;;;;6072871;23;20015;-83
2021/05/05 06:04:31;;;;;;;5.38;1.80;;;9.30;99.90;;;;;;6072024;23;20014;-83
2021/05/05 06:06:59;;;;;;;2.67;1.23;;;9.30;99.90;;;;;;6047680;23;20007;-83
2021/05/05 06:09:26;;;;;;;6.75;1.30;;;9.40;99.90;;;;;;6026051;23;20015;-86
2021/05/05 06:14:52;;;;;;;;;;;9.70;99.90;;;;;;6047410;23;20027;-83
2021/05/05 06:20:07;;;;;;;4.40;1.45;;;9.50;99.90;;;;;;6062953;23;20043;-82
2021/05/05 06:22:40;;;;;;;5.63;1.38;;;9.60;99.90;;;;;;6080673;23;20013;-81
2021/05/05 06:25:11;;;;;;;10.50;1.80;;;9.70;99.90;;;;;;6026293;23;20022;-83
2021/05/05 06:27:40;;;;;;;4.50;1.42;;;9.80;99.90;;;;;;6050603;23;20015;-82
2021/05/05 06:30:10;;;;;;;4.60;1.55;;;9.80;99.90;;;;;;6042911;23;20039;-82
2021/05/05 06:32:39;;;;;;;7.05;1.45;;;9.90;99.90;;;;;;6050845;23;20015;-83
2021/05/05 06:35:14;;;;;;;5.57;1.33;;;9.70;99.90;;;;;;6097872;23;20015;-82
2021/05/05 06:37:44;;;;;;;5.43;1.48;;;9.70;99.90;;;;;;6097620;23;20003;-81
2021/05/05 06:40:15;;;;;;;6.03;1.90;;;9.80;99.90;;;;;;6075672;23;20018;-83
2021/05/05 06:45:27;;;;;;;8.57;1.83;;;9.90;99.90;;;;;;6089684;23;20022;-85
2021/05/05 06:53:49;;;;;;;5.55;1.40;;;9.70;99.90;;;;;;6013684;23;20216;-82
2021/05/05 06:59:22;;;;;;;3.15;1.27;;;9.50;98.40;;;;;;6039726;23;20241;-82
2021/05/05 07:01:50;;;;;;;3.05;1.10;;;9.50;97.10;;;;;;6041962;23;20012;-83
2021/05/05 07:04:29;;;;;;;2.65;1.40;;;9.40;96.60;;;;;;6042274;23;20012;-83
2021/05/05 07:06:59;;;;;;;4.32;1.27;;;9.40;96.20;;;;;;6028190;23;20038;-82
2021/05/05 07:25:08;;;;;;;2.00;0.90;;;9.70;92.10;;;;;;5996485;23;20026;31
2021/05/05 07:27:37;;;;;;;3.60;1.27;;;9.60;91.40;;;;;;5999375;23;20003;-83
2021/05/05 07:30:12;;;;;;;13.35;2.25;;;9.70;92.50;;;;;;6065321;23;20014;-86
2021/05/05 07:35:37;;;;;;;3.85;1.08;;;10.10;91.70;;;;;;6062603;23;20006;-84
2021/05/05 07:47:08;;;;;;;8.30;1.70;;;10.10;90.00;;;;;;5978814;23;20023;-82
2021/05/05 07:49:43;;;;;;;5.05;1.48;;;10.10;89.60;;;;;;5957427;23;20030;-82
2021/05/05 07:58:40;;;;;;;2.75;1.25;;;10.50;84.50;;;;;;5984794;23;20034;31
2021/05/05 08:01:16;;;;;;;6.97;1.92;;;10.40;83.80;;;;;;5961944;23;20012;-83
2021/05/05 08:09:26;;;;;;;1.88;0.90;;;10.70;77.70;;;;;;6011164;23;19921;-84
2021/05/05 08:11:59;;;;;;;5.53;1.60;;;10.80;77.00;;;;;;6080522;23;20070;-83
2021/05/05 08:14:28;;;;;;;7.15;1.88;;;10.60;79.80;;;;;;6131918;23;20009;-83
2021/05/05 08:25:27;;;;;;;2.70;1.10;;;11.00;80.70;;;;;;5986453;23;19946;-81
2021/05/05 08:27:59;;;;;;;3.47;1.52;;;10.80;78.90;;;;;;6051290;23;20009;-82
2021/05/05 08:30:58;;;;;;;3.55;0.95;;;10.80;79.90;;;;;;5943644;23;20787;31
2021/05/05 08:36:23;;;;;;;4.00;1.50;;;10.50;79.00;;;;;;6081008;23;20038;-83
2021/05/05 08:38:57;;;;;;;3.65;1.23;;;10.50;78.50;;;;;;6064865;23;20746;-83
2021/05/05 08:41:25;;;;;;;5.65;1.73;;;10.60;78.60;;;;;;6078377;23;20010;-83
2021/05/05 08:44:09;;;;;;;1.30;0.80;;;10.80;73.80;;;;;;6090806;23;20964;-82
2021/05/05 08:46:41;;;;;;;2.88;1.38;;;10.90;68.10;;;;;;6024686;23;20046;-82
2021/05/05 08:49:11;;;;;;;5.03;1.00;;;10.90;65.40;;;;;;6052348;23;20014;-83
2021/05/05 08:51:40;;;;;;;2.95;1.08;;;11.10;64.50;;;;;;6022553;23;20071;-82
2021/05/05 09:08:52;;;;;;;11.35;1.55;;;10.70;67.50;;;;;;6001630;23;20030;-82
2021/05/05 09:14:19;;;;;;;7.00;1.50;;;10.80;69.00;;;;;;6098708;23;20014;-84
2021/05/05 09:16:49;;;;;;;3.97;1.25;;;10.90;70.70;;;;;;6051174;23;20002;-84
2021/05/05 09:19:18;;;;;;;4.45;1.35;;;11.30;68.00;;;;;;6051139;23;20002;-84
2021/05/05 09:21:49;;;;;;;3.92;1.50;;;11.60;67.50;;;;;;6073448;23;20002;-84
2021/05/05 09:24:23;;;;;;;4.47;1.55;;;11.70;66.50;;;;;;6048597;23;20010;-83
2021/05/05 09:26:56;;;;;;;5.00;1.70;;;11.60;65.30;;;;;;6097117;23;20011;-83
2021/05/05 09:29:41;;;;;;;4.72;1.30;;;11.30;64.50;;;;;;6049248;23;20007;-83
2021/05/05 09:32:13;;;;;;;7.35;1.45;;;11.10;62.20;;;;;;6050323;23;20006;-83
2021/05/05 09:34:44;;;;;;;7.63;2.45;;;11.20;60.20;;;;;;6050628;23;19999;-82
2021/05/05 09:45:50;;;;;;;2.38;1.10;;;11.70;57.80;;;;;;6036842;23;20015;-83
2021/05/05 09:54:32;;;;;;;3.70;1.42;;;11.80;57.60;;;;;;6013052;23;20012;-84
2021/05/05 10:00:08;;;;;;;0.45;0.30;;;12.30;56.80;;;;;;5953627;23;20019;31
2021/05/05 10:02:56;;;;;;;4.28;1.33;;;12.00;57.40;;;;;;6012241;23;20054;-84
2021/05/05 10:05:35;;;;;;;6.25;1.20;;;12.20;58.70;;;;;;5991730;24;20056;-88
2021/05/05 10:08:06;;;;;;;1.67;1.00;;;12.70;56.20;;;;;;5993936;24;20047;-85
2021/05/05 10:10:42;;;;;;;6.67;1.10;;;12.90;54.20;;;;;;5968623;24;20023;-83
2021/05/05 10:13:12;;;;;;;1.95;0.80;;;12.50;55.80;;;;;;6010478;23;20244;-81
2021/05/05 10:15:39;;;;;;;;;;;12.90;53.90;;;;;;5974411;24;20024;-81
2021/05/05 10:18:11;;;;;;;2.78;0.98;;;12.90;54.00;;;;;;5998023;24;19930;-82
2021/05/05 10:20:43;;;;;;;2.28;0.82;;;13.20;53.70;;;;;;5972750;24;20277;-82
2021/05/05 10:23:16;;;;;;;2.60;0.90;;;13.60;52.30;;;;;;5974076;24;20031;-81
2021/05/05 10:25:46;;;;;;;4.97;1.10;;;13.60;51.70;;;;;;5994137;24;20044;-82
2021/05/05 10:28:14;;;;;;;2.55;0.60;;;14.10;49.50;;;;;;5993722;24;20049;-81
2021/05/05 10:30:42;;;;;;;3.92;0.65;;;14.50;48.10;;;;;;5977447;24;20031;-82
2021/05/05 10:33:20;;;;;;;2.65;0.98;;;14.10;48.10;;;;;;6008876;24;20018;-83
2021/05/05 10:35:48;;;;;;;2.60;0.73;;;13.20;50.30;;;;;;5986892;23;20044;-83
2021/05/05 10:38:36;;;;;;;2.13;0.60;;;12.80;50.20;;;;;;6012233;23;20016;-82
2021/05/05 10:41:10;;;;;;;3.17;0.85;;;13.20;50.30;;;;;;6009008;24;20016;-83
2021/05/05 10:43:54;;;;;;;1.73;0.70;;;12.70;50.30;;;;;;6012082;24;20020;-83
2021/05/05 10:46:32;;;;;;;2.55;0.77;;;12.10;51.30;;;;;;5940964;24;20034;-82
2021/05/05 10:49:11;;;;;;;1.60;0.77;;;12.10;51.70;;;;;;5971660;24;20048;-80
2021/05/05 10:51:59;;;;;;;4.00;1.00;;;12.40;51.00;;;;;;5974516;24;20016;-80
2021/05/05 10:54:52;;;;;;;1.85;0.60;;;12.90;49.10;;;;;;5997304;23;20023;-82
2021/05/05 10:57:20;;;;;;;2.63;0.93;;;12.70;49.50;;;;;;5959338;24;20079;-84
2021/05/05 11:00:12;;;;;;;3.60;1.38;;;13.50;48.60;;;;;;5993737;23;20052;-83
2021/05/05 11:02:51;;;;;;;3.50;1.02;;;13.80;48.90;;;;;;5997691;23;20008;-81
2021/05/05 11:05:35;;;;;;;4.15;1.25;;;14.20;48.70;;;;;;5998477;24;20009;-81
2021/05/05 11:08:05;;;;;;;2.20;0.80;;;15.60;45.80;;;;;;5974334;24;20015;-82
2021/05/05 11:10:53;;;;;;;2.95;1.08;;;15.50;44.60;;;;;;5997038;24;20015;-84
2021/05/05 11:13:39;;;;;;;1.50;0.87;;;16.20;44.00;;;;;;6000853;24;20019;-82
2021/05/05 11:16:07;;;;;;;4.10;1.10;;;15.60;44.60;;;;;;5999816;24;20012;-83
2021/05/05 11:18:42;;;;;;;4.63;0.98;;;15.10;44.30;;;;;;5998729;24;20058;-84
2021/05/05 11:21:41;;;;;;;3.60;1.20;;;16.10;42.70;;;;;;5998217;24;20048;-88
2021/05/05 11:24:29;;;;;;;2.40;0.90;;;14.80;45.60;;;;;;6001427;24;20039;-86
2021/05/05 11:26:57;;;;;;;2.97;0.95;;;14.20;51.10;;;;;;5972202;24;20246;-88
2021/05/05 11:32:57;;;;;;;;;;;12.60;67.30;;;;;;5980575;24;20019;-83
2021/05/05 11:35:29;;;;;;;6.75;2.10;;;11.00;99.90;;;;;;5998252;24;20211;-88
2021/05/05 11:38:09;;;;;;;13.48;1.98;;;10.10;99.90;;;;;;5996890;24;20015;-87
2021/05/05 11:40:38;;;;;;;4.05;1.70;;;10.70;99.90;;;;;;5993545;24;20048;-85
2021/05/05 11:43:24;;;;;;;4.30;1.98;;;11.50;99.90;;;;;;5992487;24;20055;-83
2021/05/05 11:48:47;;;;;;;2.97;1.52;;;13.10;99.70;;;;;;5974036;24;20027;-87
2021/05/05 11:51:27;;;;;;;3.72;1.35;;;12.70;99.40;;;;;;6004056;23;20016;-91
2021/05/05 11:54:34;;;;;;;2.17;0.80;;;12.30;97.50;;;;;;6012884;23;20008;-83
2021/05/05 12:00:56;;;;;;;0.85;0.30;;;10.80;95.30;;;;;;6004276;23;20336;-83
2021/05/05 12:07:37;;;;;;;1.50;0.70;;;10.80;87.50;;;;;;6012881;24;19992;-85
2021/05/05 12:10:11;;;;;;;1.58;0.73;;;11.00;87.50;;;;;;6012626;23;20026;-84
2021/05/05 12:13:12;;;;;;;2.25;0.57;;;11.00;82.10;;;;;;5988336;24;20015;-84
2021/05/05 12:32:19;;;;;;;6.63;1.25;;;14.10;60.80;;;;;;6078762;23;20027;-87
2021/05/05 12:51:05;;;;;;;1.05;0.50;;;11.20;97.80;;;;;;5973688;23;20043;-81
2021/05/05 12:54:04;;;;;;;1.65;0.45;;;9.90;99.90;;;;;;6045511;23;20007;-83
2021/05/05 12:56:40;;;;;;;1.30;0.40;;;9.60;99.90;;;;;;6022678;23;20019;-84
2021/05/05 12:59:14;;;;;;;7.63;0.63;;;9.50;99.90;;;;;;6033643;23;20039;-84
2021/05/05 13:01:42;;;;;;;3.40;0.73;;;9.50;99.90;;;;;;6050373;23;20019;-84
2021/05/05 13:07:38;;;;;;;0.95;0.55;;;10.20;99.90;;;;;;6069991;23;20051;-84
2021/05/05 13:10:15;;;;;;;5.40;0.90;;;10.40;99.90;;;;;;6050202;23;20011;-84
2021/05/05 13:12:47;;;;;;;1.00;0.57;;;10.40;99.90;;;;;;6073938;23;20031;-85
2021/05/05 13:15:35;;;;;;;2.33;0.88;;;10.40;99.70;;;;;;6030744;23;20034;-83
2021/05/05 13:42:43;;;;;;;1.45;0.82;;;13.90;76.50;;;;;;6080602;23;20047;-90
2021/05/05 13:45:34;;;;;;;2.88;1.00;;;15.00;63.60;;;;;;6073540;23;20022;-83
2021/05/05 13:51:25;;;;;;;0.70;0.60;;;13.40;66.40;;;;;;5946748;23;20019;31
2021/05/05 14:00:05;;;;;;;2.33;1.08;;;13.20;66.40;;;;;;5998446;23;20015;-86
2021/05/05 14:02:44;;;;;;;2.83;0.70;;;15.00;61.20;;;;;;6122098;23;20009;-86
2021/05/05 14:36:29;;;;;;;3.58;1.38;;;13.20;68.80;;;;;;5995656;23;20039;-82
2021/05/05 14:41:58;;;;;;;2.85;1.00;;;15.40;60.30;;;;;;6065217;23;20047;-89
2021/05/05 14:44:35;;;;;;;1.27;0.60;;;16.90;53.30;;;;;;6102697;23;20018;-84
2021/05/05 14:50:11;;;;;;;1.27;0.82;;;13.30;67.00;;;;;;6002431;23;20010;-82
2021/05/05 14:52:46;;;;;;;1.63;0.88;;;13.40;67.50;;;;;;6079854;23;20006;-84
2021/05/05 14:55:23;;;;;;;2.63;0.88;;;13.60;67.10;;;;;;6048246;23;20043;-84
2021/05/05 14:58:02;;;;;;;2.22;0.98;;;13.70;66.60;;;;;;6053070;23;20027;-83
2021/05/05 15:00:39;;;;;;;1.35;0.70;;;14.60;63.30;;;;;;6045088;23;20026;-83
2021/05/05 15:03:18;;;;;;;0.70;0.32;;;14.80;60.90;;;;;;6028182;23;20000;-83
2021/05/05 15:05:47;;;;;;;1.42;0.77;;;14.00;62.30;;;;;;6050152;23;20018;-84
2021/05/05 15:08:42;;;;;;;1.40;0.90;;;13.60;65.20;;;;;;6029032;23;20006;-83
2021/05/05 15:34:25;;;;;;;2.05;1.00;;;14.50;59.80;;;;;;6078247;23;20018;-83
2021/05/05 15:37:10;;;;;;;2.72;1.25;;;13.60;60.40;;;;;;6102182;23;20014;-83
2021/05/05 15:39:52;;;;;;;2.05;1.10;;;13.50;61.90;;;;;;6126502;23;20015;-84
2021/05/05 15:42:38;;;;;;;3.75;1.02;;;13.20;62.40;;;;;;6102137;23;20006;-83
2021/05/05 15:45:46;;;;;;;4.75;1.27;;;12.80;63.80;;;;;;6101577;23;20021;-83
2021/05/05 15:48:14;;;;;;;2.85;1.15;;;12.40;65.70;;;;;;6078849;23;20014;-83
2021/05/05 15:53:56;;;;;;;4.60;1.25;;;12.00;65.90;;;;;;6117155;23;20010;-82
2021/05/05 15:56:36;;;;;;;2.25;1.15;;;11.80;69.10;;;;;;6093992;23;20011;-82
2021/05/05 15:59:12;;;;;;;2.22;1.02;;;11.80;68.20;;;;;;6119413;23;20018;-82
2021/05/05 16:02:01;;;;;;;8.05;1.35;;;11.70;67.70;;;;;;6073179;23;20021;-83
2021/05/05 16:13:18;;;;;;;6.97;1.63;;;10.00;99.90;;;;;;6061175;23;20011;-82
2021/05/05 16:15:53;;;;;;;5.75;1.65;;;9.10;99.90;;;;;;6062465;23;20015;-82
2021/05/05 16:21:38;;;;;;;3.38;2.10;;;8.00;99.90;;;;;;6046921;23;20003;-82
2021/05/05 16:30:17;;;;;;;3.45;1.88;;;7.90;99.90;;;;;;6022347;23;20010;-82
2021/05/05 16:56:16;;;;;;;4.07;1.80;;;9.00;99.90;;;;;;6069274;23;20014;-82
2021/05/05 17:07:42;;;;;;;4.07;1.60;;;8.90;99.90;;;;;;6070172;23;20014;-83
2021/05/05 17:10:18;;;;;;;4.15;1.33;;;9.10;99.90;;;;;;6069868;23;20015;-83
2021/05/05 17:12:50;;;;;;;3.42;1.25;;;9.20;99.90;;;;;;6043080;23;20316;-83
2021/05/05 17:15:25;;;;;;;4.18;1.25;;;9.40;99.90;;;;;;6091349;23;20050;-83
2021/05/05 17:18:10;;;;;;;3.33;1.42;;;9.50;99.90;;;;;;6045317;23;20026;-83
2021/05/05 17:20:51;;;;;;;2.20;1.10;;;9.40;99.90;;;;;;6092110;23;20310;-83
2021/05/05 17:23:45;;;;;;;2.47;0.90;;;9.60;99.90;;;;;;6068083;23;20049;-83
2021/05/05 17:26:25;;;;;;;2.63;1.17;;;9.90;99.90;;;;;;6068319;23;20007;-83
2021/05/05 17:29:17;;;;;;;1.42;0.70;;;10.00;99.90;;;;;;6048765;23;20006;-83
2021/05/05 17:44:08;;;;;;;1.38;0.93;;;9.70;99.90;;;;;;6049909;23;20015;-84
2021/05/05 17:47:15;;;;;;;3.75;1.10;;;9.40;99.90;;;;;;6072600;23;20029;-84
2021/05/05 18:10:45;;;;;;;3.97;1.15;;;9.40;99.90;;;;;;6068504;23;20018;-83
2021/05/05 18:16:19;;;;;;;3.05;0.77;;;9.40;99.90;;;;;;6069884;23;20022;-83
2021/05/05 18:18:57;;;;;;;4.05;1.30;;;9.40;99.90;;;;;;6046853;23;20011;-82
2021/05/05 18:24:46;;;;;;;11.52;1.50;;;9.30;99.90;;;;;;6026915;23;20011;-85
2021/05/05 18:33:25;;;;;;;3.30;1.30;;;9.10;99.90;;;;;;6104209;23;20014;-89
2021/05/05 18:39:09;;;;;;;5.55;0.93;;;9.10;99.90;;;;;;6102552;23;20006;-87
2021/05/05 18:42:47;;;;;;;6.95;1.42;;;9.10;99.00;;;;;;6128142;23;20010;-84
2021/05/05 19:14:43;;;;;;;5.82;1.25;;;8.80;99.30;;;;;;6065246;23;20025;-83
2021/05/05 20:43:16;;;;;;;7.38;1.40;;;7.80;99.90;;;;;;6104685;23;20010;-85
2021/05/05 20:49:17;;;;;;;1.60;0.80;;;7.70;99.90;;;;;;6102255;23;20017;-84
2021/05/05 20:52:13;;;;;;;2.08;1.17;;;7.70;99.90;;;;;;6150972;23;20019;-84
2021/05/05 20:55:22;;;;;;;;;;;7.60;99.90;;;;;;6067507;23;20101;-82
2021/05/05 21:07:06;;;;;;;2.85;1.00;;;7.40;99.90;;;;;;6125030;23;20013;-86
2021/05/05 21:09:58;;;;;;;2.58;0.98;;;7.30;99.90;;;;;;6126794;23;20027;-84
2021/05/05 21:24:07;;;;;;;5.55;1.30;;;7.10;99.90;;;;;;6049182;23;20034;-84
2021/05/05 22:29:05;;;;;;;2.90;1.00;;;6.40;99.90;;;;;;6073843;23;20007;-85
2021/05/05 22:48:52;;;;;;;3.10;1.23;;;6.70;99.90;;;;;;6069108;23;20025;-83
2021/05/05 23:13:51;;;;;;;3.75;1.10;;;6.40;99.90;;;;;;6091605;23;20018;-84
2021/05/05 23:16:55;;;;;;;8.88;1.42;;;6.40;99.90;;;;;;6066288;23;20030;-83
2021/05/05 23:22:12;;;;;;;4.07;1.55;;;6.30;99.90;;;;;;6044449;23;20006;-82
2021/05/05 23:27:35;;;;;;;4.40;1.33;;;6.30;99.90;;;;;;6045357;23;20034;-84
2021/05/05 23:30:27;;;;;;;3.63;1.40;;;6.30;99.90;;;;;;6072508;23;20018;-84
2021/05/05 23:52:58;;;;;;;3.42;1.35;;;6.10;99.90;;;;;;6071279;23;20015;-83
2021/05/05 23:55:58;;;;;;;3.33;1.10;;;6.00;99.90;;;;;;6068610;23;20015;-82
